バクー の空港の天気 - METARとTAF

ヘイダル・アリエフ国際空港(バクー) ( UBBB / BAK ) - アゼルバイジャン バクー
飛行場実況気象(Metar)
観測時間04/21 21:00 AZT (04/21 17:00 UTC)
風向・風速北北東 2m/s
視程10km以上
天気現象
全天の4割程度の雲 雲底高度 640m
気温7℃
湿度87%
気圧1023hPa
METARUBBB 211700Z 02004KT 9999 SCT021 07/05 Q1023 R88/CLRD// NOSIG
過去の天気等 Google飛行場航空写真 Wunderground天気予報

過去48時間のMETAR

飛行場予報(TAF)
発表時間: 4/21 15:10 AZT (4/21 11:10 UTC)
予報対象時間: 21日16時 AZT ~ 22日16時 AZT
風向・風速北 6m/s
視程10km以上
全天の4割程度の雲 雲底高度 610m
全天の8割程度の雲 雲底高度 910m
全天の8割程度の雲 雲底高度 3050m
21日18時 AZT ~ 22日2時 AZT に一時的に
風向・風速北東 3m/s
天気現象弱い雨
全天の8割程度の雲 雲底高度 240m
全天の8割程度の雲 雲底高度 460m
22日2時 AZT ~ 22日10時 AZT に一時的に
風向・風速北東 5m/s
全天の4割程度の雲 雲底高度 240m
全天の4割程度の雲 雲底高度 460m
22日10時 AZT ~ 22日12時 AZT に徐々に
風向・風速北北東 9m/s 瞬間風速 14m/s
全天を覆う雲 雲底高度 3050m
TAF UBBB 211110Z 2112/2212 01012KT 9999 SCT020 BKN030 BKN100 TX11/2112Z TN06/2202Z
TEMPO 2114/2122 04006KT -RA BKN008 BKN015
TEMPO 2122/2206 04010KT SCT008 SCT015
BECMG 2206/2208 03018G28KT OVC100